createdAt,value
2019-02-26T00:00:56.318Z,0.42
2019-02-26T00:01:57.483Z,0.4
2019-02-26T00:02:59.843Z,0.41
2019-02-26T00:03:44.669Z,0.38
2019-02-26T00:04:44.752Z,0.37
2019-02-26T00:05:56.792Z,0.34
2019-02-26T00:06:56.176Z,0.32
2019-02-26T00:07:58.263Z,0.24
2019-02-26T00:08:59.284Z,0.28
2019-02-26T00:09:45.008Z,0.15
2019-02-26T00:10:46.195Z,0.14
2019-02-26T00:11:46.481Z,0.14
2019-02-26T00:12:44.976Z,0.08
2019-02-26T00:13:44.763Z,-0.03
2019-02-26T00:14:56.518Z,0.14
2019-02-26T00:15:48.582Z,0.03
2019-02-26T00:16:51.116Z,0.06
2019-02-26T00:17:53.130Z,0.06
2019-02-26T00:18:45.533Z,0.05
2019-02-26T00:19:45.401Z,0.05
2019-02-26T00:20:44.696Z,0.14
2019-02-26T00:21:54.467Z,-0.12
2019-02-26T00:22:44.896Z,0.18
2019-02-26T00:23:53.225Z,0.1
2019-02-26T00:24:46.817Z,-0.1
2019-02-26T00:25:44.948Z,0.12
2019-02-26T00:26:45.391Z,0.14
2019-02-26T00:27:56.217Z,0.08
2019-02-26T00:28:45.916Z,0.02
2019-02-26T00:29:55.378Z,0.22
2019-02-26T00:30:44.600Z,0.14
2019-02-26T00:31:54.807Z,0.16
2019-02-26T00:32:45.093Z,0.15
2019-02-26T00:33:44.863Z,0.13
2019-02-26T00:34:44.788Z,0.11
2019-02-26T00:35:50.368Z,0.15
2019-02-26T00:36:45.087Z,0.16
2019-02-26T00:37:55.930Z,0.03
2019-02-26T00:38:44.687Z,-0.12
2019-02-26T00:39:53.588Z,-0.03
2019-02-26T00:40:44.808Z,0.03
2019-02-26T00:41:44.697Z,0.07
2019-02-26T00:42:44.969Z,0.09
2019-02-26T00:43:44.613Z,0.07
2019-02-26T00:44:44.620Z,-0.01
2019-02-26T00:45:44.707Z,-0.09
2019-02-26T00:46:44.663Z,-0.06
2019-02-26T00:47:46.454Z,0.05
2019-02-26T00:48:44.587Z,-0.04
2019-02-26T00:49:53.578Z,-0.2
2019-02-26T00:50:45.661Z,-0.15
2019-02-26T00:51:52.916Z,-0.18
2019-02-26T00:52:45.509Z,-0.33
2019-02-26T00:53:44.652Z,0.01
2019-02-26T00:54:45.144Z,-0.12
2019-02-26T00:55:44.923Z,-0.21
2019-02-26T00:56:45.117Z,-0.11
2019-02-26T00:57:45.144Z,-0.02
2019-02-26T00:58:50.577Z,0.03
2019-02-26T00:59:48.251Z,-0.01
2019-02-26T01:00:44.622Z,0.07
2019-02-26T01:01:56.601Z,0.03
2019-02-26T01:02:44.650Z,-0.01
2019-02-26T01:03:52.040Z,-0.09
2019-02-26T01:04:51.082Z,-0.04
2019-02-26T01:05:45.666Z,-0.04
2019-02-26T01:06:44.881Z,0
2019-02-26T01:07:54.525Z,-0.1
2019-02-26T01:08:47.247Z,-0.02
2019-02-26T01:09:44.529Z,0.02
2019-02-26T01:10:46.406Z,-0.08
2019-02-26T01:11:53.664Z,-0.21
2019-02-26T01:12:45.435Z,-0.32
2019-02-26T01:13:44.823Z,-0.4
2019-02-26T01:14:50.479Z,-0.13
2019-02-26T01:15:44.606Z,-0.18
2019-02-26T01:16:48.462Z,-0.15
2019-02-26T01:17:45.052Z,-0.13
2019-02-26T01:18:53.365Z,-0.22
2019-02-26T01:19:44.649Z,-0.15
2019-02-26T01:20:57.203Z,-0.36
2019-02-26T01:21:44.540Z,-0.13
2019-02-26T01:22:45.761Z,-0.18
2019-02-26T01:23:44.638Z,-0.18
2019-02-26T01:24:44.527Z,-0.17
2019-02-26T01:25:44.798Z,-0.18
2019-02-26T01:26:44.910Z,-0.13
2019-02-26T01:27:55.764Z,-0.11
2019-02-26T01:28:58.395Z,-0.18
2019-02-26T01:29:56.562Z,-0.15
2019-02-26T01:30:45.442Z,-0.32
2019-02-26T01:31:45.181Z,-0.27
2019-02-26T01:32:44.849Z,-0.34
2019-02-26T01:33:54.955Z,-0.43
2019-02-26T01:34:49.634Z,-0.57
2019-02-26T01:35:44.992Z,-0.53
2019-02-26T01:36:49.803Z,-0.27
2019-02-26T01:37:44.796Z,-0.18
2019-02-26T01:38:53.271Z,-0.31
2019-02-26T01:39:54.000Z,-0.34
2019-02-26T01:40:56.155Z,-0.3
2019-02-26T01:41:58.312Z,-0.25
2019-02-26T01:42:58.477Z,-0.32
2019-02-26T01:43:44.351Z,-0.27
2019-02-26T01:44:44.786Z,-0.36
2019-02-26T01:45:55.509Z,-0.39
2019-02-26T01:46:44.742Z,-0.46
2019-02-26T01:47:52.926Z,-0.47
2019-02-26T01:48:44.484Z,-0.49
2019-02-26T01:49:51.241Z,-0.59
2019-02-26T01:50:44.778Z,-0.43
2019-02-26T01:51:54.082Z,-0.37
2019-02-26T01:52:45.413Z,-0.36
2019-02-26T01:53:53.739Z,-0.52
2019-02-26T01:54:44.902Z,-0.4
2019-02-26T01:55:50.646Z,-0.42
2019-02-26T01:56:45.588Z,-0.5
2019-02-26T01:57:45.114Z,-0.58
2019-02-26T01:58:45.017Z,-0.6
2019-02-26T01:59:44.718Z,-0.53
2019-02-26T02:00:44.514Z,-0.47
2019-02-26T02:01:54.178Z,-0.5
2019-02-26T02:02:44.586Z,-0.44
2019-02-26T02:03:56.010Z,-0.43
2019-02-26T02:04:45.095Z,-0.61
2019-02-26T02:05:54.777Z,-0.44
2019-02-26T02:06:44.600Z,-0.52
2019-02-26T02:07:55.917Z,-0.65
2019-02-26T02:08:55.665Z,-0.76
2019-02-26T02:09:56.193Z,-0.43
2019-02-26T02:10:44.822Z,-0.41
2019-02-26T02:11:44.936Z,-0.43
2019-02-26T02:12:44.467Z,-0.45
2019-02-26T02:13:44.483Z,-0.5
2019-02-26T02:14:44.712Z,-0.58
2019-02-26T02:15:46.726Z,-0.44
2019-02-26T02:16:44.743Z,-0.64
2019-02-26T02:17:44.742Z,-0.56
2019-02-26T02:18:57.636Z,-0.65
2019-02-26T02:19:46.297Z,-0.45
2019-02-26T02:20:44.516Z,-0.55
2019-02-26T02:21:44.684Z,-0.63
2019-02-26T02:22:46.325Z,-0.6
2019-02-26T02:23:52.995Z,-0.45
2019-02-26T02:24:55.271Z,-0.53
2019-02-26T02:25:45.877Z,-0.39
2019-02-26T02:26:57.521Z,-0.47
2019-02-26T02:27:59.320Z,-0.39
2019-02-26T02:28:44.711Z,-0.42
2019-02-26T02:29:57.633Z,-0.6
2019-02-26T02:30:44.642Z,-0.42
2019-02-26T02:31:44.514Z,-0.52
2019-02-26T02:32:59.916Z,-0.4
2019-02-26T02:33:44.638Z,-0.41
2019-02-26T02:34:44.559Z,-0.44
2019-02-26T02:35:44.481Z,-0.53
2019-02-26T02:36:45.317Z,-0.52
2019-02-26T02:37:44.689Z,-0.66
2019-02-26T02:38:44.786Z,-0.51
2019-02-26T02:39:45.014Z,-0.5
2019-02-26T02:40:55.047Z,-0.54
2019-02-26T02:41:55.088Z,-0.69
2019-02-26T02:42:49.639Z,-0.55
2019-02-26T02:43:45.849Z,-0.69
2019-02-26T02:44:52.956Z,-0.63
2019-02-26T02:45:44.605Z,-0.51
2019-02-26T02:46:46.925Z,-0.56
2019-02-26T02:47:44.744Z,-0.52
2019-02-26T02:48:44.850Z,-0.57
2019-02-26T02:49:44.682Z,-0.63
2019-02-26T02:50:44.863Z,-0.6
2019-02-26T02:51:44.423Z,-0.65
2019-02-26T02:52:45.529Z,-0.63
2019-02-26T02:53:58.871Z,-0.6
2019-02-26T02:54:51.976Z,-0.75
2019-02-26T02:55:51.751Z,-0.6
2019-02-26T02:56:44.904Z,-0.59
2019-02-26T02:57:57.935Z,-0.68
2019-02-26T02:58:51.882Z,-0.67
2019-02-26T02:59:45.439Z,-0.75
2019-02-26T03:00:59.633Z,-0.9
2019-02-26T03:01:57.207Z,-0.87
2019-02-26T03:02:58.209Z,-0.84
2019-02-26T03:03:58.278Z,-0.73
2019-02-26T03:04:45.380Z,-0.62
2019-02-26T03:05:46.147Z,-0.62
2019-02-26T03:06:44.770Z,-0.69
2019-02-26T03:07:56.442Z,-0.81
2019-02-26T03:08:53.566Z,-0.68
2019-02-26T03:09:46.094Z,-0.86
2019-02-26T03:10:45.223Z,-0.73
2019-02-26T03:11:55.132Z,-0.75
2019-02-26T03:13:01.016Z,-0.68
2019-02-26T03:13:54.002Z,-0.68
2019-02-26T03:14:44.750Z,-0.73
2019-02-26T03:15:44.497Z,-0.77
2019-02-26T03:16:53.628Z,-0.77
2019-02-26T03:17:44.524Z,-0.77
2019-02-26T03:18:44.539Z,-0.75
2019-02-26T03:19:44.437Z,-0.81
2019-02-26T03:20:44.587Z,-0.77
2019-02-26T03:21:55.079Z,-0.77
2019-02-26T03:22:49.427Z,-0.81
2019-02-26T03:23:45.866Z,-0.83
2019-02-26T03:24:45.276Z,-0.75
2019-02-26T03:25:55.092Z,-0.81
2019-02-26T03:26:44.696Z,-0.88
2019-02-26T03:27:44.746Z,-0.84
2019-02-26T03:28:53.529Z,-0.87
2019-02-26T03:29:58.278Z,-0.88
2019-02-26T03:30:45.037Z,-0.82
2019-02-26T03:31:55.742Z,-0.9
2019-02-26T03:33:04.860Z,-0.83
2019-02-26T03:33:44.606Z,-0.86
2019-02-26T03:34:44.419Z,-0.85
2019-02-26T03:35:44.492Z,-0.86
2019-02-26T03:36:46.041Z,-0.84
2019-02-26T03:37:44.567Z,-0.79
2019-02-26T03:38:57.325Z,-0.95
2019-02-26T03:39:44.477Z,-0.83
2019-02-26T03:40:45.411Z,-0.85
2019-02-26T03:41:56.388Z,-0.84
2019-02-26T03:42:46.588Z,-0.9
2019-02-26T03:43:44.467Z,-0.86
2019-02-26T03:44:47.231Z,-0.96
2019-02-26T03:45:48.325Z,-0.89
2019-02-26T03:46:45.286Z,-1
2019-02-26T03:47:44.320Z,-0.88
2019-02-26T03:48:44.837Z,-0.91
2019-02-26T03:49:45.205Z,-1.02
2019-02-26T03:50:44.903Z,-0.93
2019-02-26T03:51:44.639Z,-0.93
2019-02-26T03:52:44.678Z,-0.96
2019-02-26T03:53:44.464Z,-0.97
2019-02-26T03:54:50.923Z,-0.98
2019-02-26T03:55:44.794Z,-0.98
2019-02-26T03:56:44.574Z,-1
2019-02-26T03:57:59.527Z,-1.01
2019-02-26T03:58:44.502Z,-1.03
2019-02-26T03:59:44.425Z,-1.05
2019-02-26T04:00:47.122Z,-0.99
2019-02-26T04:01:44.498Z,-1
2019-02-26T04:02:52.326Z,-1.02
2019-02-26T04:03:45.188Z,-0.99
2019-02-26T04:05:00.582Z,-1.02
2019-02-26T04:05:44.751Z,-1.06
2019-02-26T04:06:47.314Z,-1
2019-02-26T04:07:44.973Z,-0.99
2019-02-26T04:08:56.049Z,-1.08
2019-02-26T04:09:58.507Z,-0.98
2019-02-26T04:10:57.932Z,-1.03
2019-02-26T04:11:55.618Z,-1.08
2019-02-26T04:12:58.116Z,-0.99
2019-02-26T04:13:56.804Z,-1.06
2019-02-26T04:14:44.511Z,-1.1
2019-02-26T04:15:44.356Z,-1.05
2019-02-26T04:16:44.270Z,-1.05
2019-02-26T04:17:44.420Z,-1.04
2019-02-26T04:18:44.527Z,-1.06
2019-02-26T04:19:44.844Z,-1.05
2019-02-26T04:20:46.121Z,-1.1
2019-02-26T04:21:44.375Z,-1.07
2019-02-26T04:22:57.262Z,-1.11
2019-02-26T04:23:46.868Z,-1.11
2019-02-26T04:24:44.261Z,-1.07
2019-02-26T04:25:44.402Z,-1.03
2019-02-26T04:26:44.989Z,-1.08
2019-02-26T04:27:44.359Z,-0.98
2019-02-26T04:28:47.796Z,-1.06
2019-02-26T04:29:49.538Z,-1.09
2019-02-26T04:30:52.600Z,-1.03
2019-02-26T04:31:57.152Z,-1.15
2019-02-26T04:32:49.142Z,-1.04
2019-02-26T04:33:44.262Z,-1.1
2019-02-26T04:34:44.379Z,-1.06
2019-02-26T04:35:55.616Z,-1.09
2019-02-26T04:36:47.282Z,-1.15
2019-02-26T04:37:44.533Z,-1.08
2019-02-26T04:38:55.626Z,-1.08
2019-02-26T04:39:47.857Z,-1.28
2019-02-26T04:40:44.313Z,-1.13
2019-02-26T04:41:44.297Z,-1.07
2019-02-26T04:42:46.312Z,-1.14
2019-02-26T04:43:44.265Z,-1.2
2019-02-26T04:45:01.060Z,-1.17
2019-02-26T04:45:44.395Z,-1.22
2019-02-26T04:46:44.436Z,-1.23
2019-02-26T04:47:59.926Z,-1.13
2019-02-26T04:48:44.520Z,-1.29
2019-02-26T04:49:44.749Z,-1.29
2019-02-26T04:50:44.929Z,-1.21
2019-02-26T04:51:50.696Z,-1.28
2019-02-26T04:52:44.323Z,-1.34
2019-02-26T04:53:44.689Z,-1.33
2019-02-26T04:54:44.703Z,-1.09
2019-02-26T04:55:45.131Z,-1.11
2019-02-26T04:56:51.155Z,-1.23
2019-02-26T04:57:54.387Z,-1.31
2019-02-26T04:58:47.997Z,-1.08
2019-02-26T04:59:44.476Z,-1.03
2019-02-26T05:00:45.541Z,-1.02
2019-02-26T05:01:57.572Z,-1.01
2019-02-26T05:02:44.239Z,-1.1
2019-02-26T05:03:44.262Z,-1.16
2019-02-26T05:04:46.094Z,-1.24
2019-02-26T05:05:44.249Z,-1.36
2019-02-26T05:06:44.532Z,-1.31
2019-02-26T05:07:50.162Z,-1.23
2019-02-26T05:08:44.532Z,-1.23
2019-02-26T05:09:59.450Z,-1.21
2019-02-26T05:10:56.839Z,-1.28
2019-02-26T05:11:44.321Z,-1.4
2019-02-26T05:12:44.288Z,-1.36
2019-02-26T05:13:45.096Z,-1.19
2019-02-26T05:14:44.313Z,-1.07
2019-02-26T05:15:44.531Z,-1.05
2019-02-26T05:16:44.244Z,-0.98
2019-02-26T05:17:44.432Z,-0.95
2019-02-26T05:18:58.530Z,-0.98
2019-02-26T05:19:51.979Z,-1.15
2019-02-26T05:20:48.747Z,-1.06
2019-02-26T05:21:46.052Z,-1.02
2019-02-26T05:22:44.377Z,-1.01
2019-02-26T05:23:57.424Z,-1.14
2019-02-26T05:24:53.003Z,-1.23
2019-02-26T05:25:45.119Z,-1.23
2019-02-26T05:26:44.415Z,-1.33
2019-02-26T05:27:51.128Z,-1.14
2019-02-26T05:28:51.749Z,-1.13
2019-02-26T05:29:54.956Z,-1.09
2019-02-26T05:30:51.502Z,-1.13
2019-02-26T05:31:44.352Z,-1.14
2019-02-26T05:32:44.325Z,-1.06
2019-02-26T05:33:57.184Z,-1.15
2019-02-26T05:34:51.023Z,-1.05
2019-02-26T05:35:51.727Z,-1.05
2019-02-26T05:36:46.659Z,-1.07
2019-02-26T05:37:44.418Z,-1.12
2019-02-26T05:38:44.431Z,-1.14
2019-02-26T05:39:54.876Z,-1.2
2019-02-26T05:40:55.978Z,-1.18
2019-02-26T05:41:46.021Z,-1.13
2019-02-26T05:42:44.668Z,-1.15
2019-02-26T05:44:01.705Z,-1.11
2019-02-26T05:44:44.473Z,-1.15
2019-02-26T05:45:44.239Z,-1.15
2019-02-26T05:46:58.670Z,-1.08
2019-02-26T05:47:59.053Z,-1.12
2019-02-26T05:48:51.273Z,-1.13
2019-02-26T05:49:46.145Z,-1.16
2019-02-26T05:50:45.010Z,-1.13
2019-02-26T05:51:46.039Z,-1.16
2019-02-26T05:52:44.259Z,-1.17
2019-02-26T05:53:44.651Z,-1.15
2019-02-26T05:54:44.238Z,-1.21
2019-02-26T05:55:56.057Z,-1.23
2019-02-26T05:56:50.173Z,-1.25
2019-02-26T05:57:44.463Z,-1.24
2019-02-26T05:58:47.356Z,-1.28
2019-02-26T05:59:44.226Z,-1.3
2019-02-26T06:00:44.586Z,-1.24
2019-02-26T06:01:58.253Z,-1.3
2019-02-26T06:02:51.232Z,-1.25
2019-02-26T06:03:52.184Z,-1.19
2019-02-26T06:04:47.017Z,-1.18
2019-02-26T06:05:58.304Z,-1.22
2019-02-26T06:06:44.401Z,-1.22
2019-02-26T06:07:44.410Z,-1.32
2019-02-26T06:08:44.429Z,-1.39
2019-02-26T06:09:55.738Z,-1.37
2019-02-26T06:10:44.538Z,-1.41
2019-02-26T06:11:50.290Z,-1.24
2019-02-26T06:12:46.916Z,-1.21
2019-02-26T06:13:44.399Z,-1.21
2019-02-26T06:14:44.367Z,-1.22
2019-02-26T06:15:44.261Z,-1.23
2019-02-26T06:16:56.033Z,-1.28
2019-02-26T06:17:55.458Z,-1.27
2019-02-26T06:18:54.501Z,-1.29
2019-02-26T06:19:45.336Z,-1.34
2019-02-26T06:20:46.022Z,-1.32
2019-02-26T06:21:56.710Z,-1.34
2019-02-26T06:22:44.995Z,-1.31
2019-02-26T06:23:44.245Z,-1.32
2019-02-26T06:24:44.323Z,-1.35
2019-02-26T06:25:44.219Z,-1.37
2019-02-26T06:26:45.757Z,-1.36
2019-02-26T06:27:44.657Z,-1.31
2019-02-26T06:28:53.080Z,-1.32
2019-02-26T06:29:44.466Z,-1.37
2019-02-26T06:30:44.997Z,-1.39
2019-02-26T06:31:49.606Z,-1.45
2019-02-26T06:32:45.057Z,-1.54
2019-02-26T06:33:48.023Z,-1.48
2019-02-26T06:34:43.937Z,-1.5
2019-02-26T06:35:43.935Z,-1.38
2019-02-26T06:36:53.259Z,-1.27
2019-02-26T06:37:43.932Z,-1.31
2019-02-26T06:38:43.918Z,-1.44
2019-02-26T06:39:44.280Z,-1.46
2019-02-26T06:40:51.543Z,-1.45
2019-02-26T06:41:51.387Z,-1.51
2019-02-26T06:42:44.180Z,-1.37
2019-02-26T06:43:55.293Z,-1.48
2019-02-26T06:44:51.542Z,-1.48
2019-02-26T06:45:47.978Z,-1.5
2019-02-26T06:46:44.196Z,-1.46
2019-02-26T06:47:56.292Z,-1.32
2019-02-26T06:48:44.375Z,-1.38
2019-02-26T06:49:52.821Z,-1.41
2019-02-26T06:50:44.295Z,-1.17
2019-02-26T06:51:54.162Z,-1.17
2019-02-26T06:52:50.976Z,-1.14
2019-02-26T06:53:57.081Z,-1.15
2019-02-26T06:55:02.416Z,-1.17
2019-02-26T06:55:44.465Z,-1.16
2019-02-26T06:56:52.921Z,-1.1
2019-02-26T06:57:55.257Z,-1.09
2019-02-26T06:58:47.657Z,-1.06
2019-02-26T06:59:44.053Z,-1.03
2019-02-26T07:00:55.610Z,-1.07
2019-02-26T07:01:44.063Z,-1.11
2019-02-26T07:02:46.537Z,-1.1
2019-02-26T07:03:44.145Z,-1.03
2019-02-26T07:04:44.166Z,-1.08
2019-02-26T07:05:46.731Z,-1.02
2019-02-26T07:06:44.172Z,-1.02
2019-02-26T07:07:45.907Z,-1.03
2019-02-26T07:08:53.713Z,-1.05
2019-02-26T07:09:44.322Z,-1.01
2019-02-26T07:10:44.418Z,-1.01
2019-02-26T07:11:44.846Z,-0.96
2019-02-26T07:12:50.722Z,-1.02
2019-02-26T07:13:46.644Z,-1
2019-02-26T07:14:57.583Z,-1.11
2019-02-26T07:15:46.101Z,-1.01
2019-02-26T07:16:44.246Z,-1.01
2019-02-26T07:17:46.516Z,-1.06
2019-02-26T07:18:44.083Z,-1.07
2019-02-26T07:19:44.984Z,-1.14
2019-02-26T07:20:58.125Z,-0.96
2019-02-26T07:21:53.133Z,-0.96
2019-02-26T07:22:51.781Z,-0.86
2019-02-26T07:23:44.010Z,-0.98
2019-02-26T07:24:54.062Z,-0.85
2019-02-26T07:25:44.381Z,-0.85
2019-02-26T07:26:48.533Z,-0.78
2019-02-26T07:27:44.530Z,-0.76
2019-02-26T07:28:51.171Z,-0.72
2019-02-26T07:29:52.548Z,-0.69
2019-02-26T07:30:47.166Z,-0.65
2019-02-26T07:31:44.360Z,-0.58
2019-02-26T07:32:48.503Z,-0.59
2019-02-26T07:33:44.263Z,-0.61
2019-02-26T07:34:52.334Z,-0.65
2019-02-26T07:35:44.458Z,-0.68
2019-02-26T07:36:52.654Z,-0.65
2019-02-26T07:37:44.170Z,-0.73
2019-02-26T07:38:56.644Z,-0.7
2019-02-26T07:39:51.730Z,-0.51
2019-02-26T07:40:44.720Z,-0.47
2019-02-26T07:41:52.472Z,-0.55
2019-02-26T07:42:49.770Z,-0.63
2019-02-26T07:43:54.840Z,-0.65
2019-02-26T07:44:44.326Z,-0.45
2019-02-26T07:45:44.562Z,-0.56
2019-02-26T07:46:45.868Z,-0.64
2019-02-26T07:47:45.489Z,-0.46
2019-02-26T07:48:59.345Z,-0.38
2019-02-26T07:49:44.849Z,-0.34
2019-02-26T07:50:50.928Z,-0.3
2019-02-26T07:51:45.015Z,-0.23
2019-02-26T07:52:57.051Z,-0.36
2019-02-26T07:53:57.915Z,-0.3
2019-02-26T07:54:52.026Z,-0.24
2019-02-26T07:55:44.363Z,-0.15
2019-02-26T07:56:43.968Z,-0.02
2019-02-26T07:57:53.327Z,0.02
2019-02-26T07:58:44.430Z,0.03
2019-02-26T07:59:50.404Z,0.04
2019-02-26T08:00:52.527Z,0.07
2019-02-26T08:01:49.845Z,-0.11
2019-02-26T08:02:43.965Z,-0.15
2019-02-26T08:03:53.383Z,-0.11
2019-02-26T08:04:44.065Z,-0.16
2019-02-26T08:05:44.182Z,-0.01
2019-02-26T08:06:43.963Z,-0.06
2019-02-26T08:07:56.402Z,0.22
2019-02-26T08:08:49.095Z,0.22
2019-02-26T08:09:44.189Z,0.16
2019-02-26T08:10:53.314Z,0.09
2019-02-26T08:11:49.282Z,0.2
2019-02-26T08:12:44.192Z,0.3
2019-02-26T08:13:44.241Z,0.34
2019-02-26T08:14:50.320Z,0.25
2019-02-26T08:15:44.436Z,0.38
2019-02-26T08:16:44.136Z,0.32
2019-02-26T08:18:00.476Z,0.22
2019-02-26T08:18:44.168Z,0.27
2019-02-26T08:19:49.601Z,0.29
2019-02-26T08:20:44.049Z,0.53
2019-02-26T08:21:54.510Z,0.6
2019-02-26T08:22:43.989Z,0.64
2019-02-26T08:23:52.882Z,0.67
2019-02-26T08:24:55.404Z,0.55
2019-02-26T08:25:44.080Z,0.58
2019-02-26T08:26:49.883Z,0.75
2019-02-26T08:27:44.316Z,0.77
2019-02-26T08:28:48.364Z,0.77
2019-02-26T08:29:44.041Z,0.81
2019-02-26T08:30:54.343Z,0.83
2019-02-26T08:31:54.040Z,0.97
2019-02-26T08:32:58.887Z,0.96
2019-02-26T08:33:51.969Z,1.02
2019-02-26T08:34:45.778Z,0.92
2019-02-26T08:35:44.680Z,0.97
2019-02-26T08:36:47.031Z,1.03
2019-02-26T08:37:44.099Z,1
2019-02-26T08:38:45.769Z,0.94
2019-02-26T08:39:44.189Z,1.09
2019-02-26T08:40:44.220Z,1.08
2019-02-26T08:41:44.509Z,1.05
2019-02-26T08:42:44.425Z,1
2019-02-26T08:43:56.289Z,0.97
2019-02-26T08:44:55.889Z,1.13
2019-02-26T08:45:45.758Z,1.13
2019-02-26T08:46:49.169Z,1.26
2019-02-26T08:47:44.038Z,1.28
2019-02-26T08:48:50.985Z,1.3
2019-02-26T08:49:47.702Z,1.3
2019-02-26T08:50:46.582Z,1.22
2019-02-26T08:51:44.229Z,1.25
2019-02-26T08:52:58.417Z,1.1
2019-02-26T08:53:55.191Z,1.12
2019-02-26T08:54:44.090Z,1.15
2019-02-26T08:55:44.086Z,1.37
2019-02-26T08:56:44.020Z,1.46
2019-02-26T08:57:44.619Z,1.34
2019-02-26T08:58:45.610Z,1.46
2019-02-26T08:59:54.540Z,1.41
2019-02-26T09:00:44.181Z,1.44
2019-02-26T09:01:44.345Z,1.52
2019-02-26T09:02:56.859Z,1.51
2019-02-26T09:03:44.051Z,1.39
2019-02-26T09:04:48.081Z,1.42
2019-02-26T09:05:44.259Z,1.53
2019-02-26T09:06:44.022Z,1.76
2019-02-26T09:07:50.820Z,1.92
2019-02-26T09:08:44.725Z,1.86
2019-02-26T09:09:54.882Z,1.85
2019-02-26T09:10:48.861Z,1.84
2019-02-26T09:11:45.138Z,1.97
2019-02-26T09:12:52.276Z,1.99
2019-02-26T09:13:44.179Z,1.97
2019-02-26T09:14:50.193Z,1.98
2019-02-26T09:15:44.555Z,1.91
2019-02-26T09:16:57.614Z,2.02
2019-02-26T09:17:44.718Z,1.99
2019-02-26T09:18:43.667Z,2.06
2019-02-26T09:19:44.288Z,1.95
2019-02-26T09:20:45.706Z,1.99
2019-02-26T09:21:54.889Z,2.08
2019-02-26T09:22:56.932Z,2.16
2019-02-26T09:23:59.485Z,2.14
2019-02-26T09:24:44.191Z,2.2
2019-02-26T09:26:00.181Z,2.23
2019-02-26T09:26:44.194Z,2.27
2019-02-26T09:27:44.323Z,2.26
2019-02-26T09:28:55.455Z,2.31
2019-02-26T09:29:51.611Z,2.26
2019-02-26T09:30:44.124Z,2.32
2019-02-26T09:31:45.681Z,2.39
2019-02-26T09:32:45.195Z,2.35
2019-02-26T09:33:45.750Z,2.39
2019-02-26T09:34:44.063Z,2.32
2019-02-26T09:35:54.002Z,2.55
2019-02-26T09:36:58.155Z,2.42
2019-02-26T09:37:55.405Z,2.53
2019-02-26T09:38:51.593Z,2.57
2019-02-26T09:39:44.075Z,2.49
2019-02-26T09:40:54.638Z,2.52
2019-02-26T09:41:45.792Z,2.62
2019-02-26T09:42:59.989Z,2.52
2019-02-26T09:43:48.345Z,2.49
2019-02-26T09:44:44.895Z,2.63
2019-02-26T09:45:52.955Z,2.46
2019-02-26T09:46:44.299Z,2.51
2019-02-26T09:47:57.582Z,2.48
2019-02-26T09:48:46.280Z,2.63
2019-02-26T09:49:43.812Z,2.62
2019-02-26T09:50:48.904Z,2.61
2019-02-26T09:51:44.105Z,2.71
2019-02-26T09:52:55.732Z,2.7
2019-02-26T09:53:44.315Z,2.78
2019-02-26T09:54:55.193Z,2.83
2019-02-26T09:55:44.095Z,2.82
2019-02-26T09:56:44.092Z,2.93
2019-02-26T09:57:44.313Z,2.81
2019-02-26T09:58:51.081Z,2.7
2019-02-26T09:59:43.765Z,2.83
2019-02-26T10:00:54.465Z,2.88
2019-02-26T10:01:43.802Z,2.92
2019-02-26T10:02:52.265Z,2.83
2019-02-26T10:03:43.796Z,3.02
2019-02-26T10:04:53.919Z,2.81
2019-02-26T10:05:57.385Z,2.94
2019-02-26T10:06:47.683Z,2.81
2019-02-26T10:07:44.168Z,2.81
2019-02-26T10:08:55.586Z,2.9
2019-02-26T10:09:48.726Z,2.82
2019-02-26T10:10:45.374Z,2.91
2019-02-26T10:11:51.804Z,2.9
2019-02-26T10:12:44.115Z,2.87
2019-02-26T10:13:51.386Z,2.9
2019-02-26T10:14:43.939Z,2.93
2019-02-26T10:15:45.041Z,2.88
2019-02-26T10:16:54.286Z,2.96
2019-02-26T10:17:45.397Z,2.98
2019-02-26T10:18:54.764Z,2.94
2019-02-26T10:19:43.836Z,2.99
2019-02-26T10:20:54.656Z,3.13
2019-02-26T10:21:45.140Z,2.86
2019-02-26T10:22:47.331Z,2.82
2019-02-26T10:23:57.437Z,2.71
2019-02-26T10:24:45.595Z,2.83
2019-02-26T10:25:45.434Z,2.84
2019-02-26T10:26:45.616Z,2.83
2019-02-26T10:27:47.994Z,2.99
2019-02-26T10:29:04.824Z,2.88
2019-02-26T10:29:50.085Z,3
2019-02-26T10:30:44.225Z,3
2019-02-26T10:31:43.747Z,2.95
2019-02-26T10:32:47.173Z,2.93
2019-02-26T10:33:50.954Z,2.99
2019-02-26T10:34:44.010Z,3.11
2019-02-26T10:35:50.061Z,3.05
2019-02-26T10:36:52.028Z,3.03
2019-02-26T10:37:44.158Z,3
2019-02-26T10:38:44.006Z,2.96
2019-02-26T10:39:55.068Z,2.88
2019-02-26T10:41:01.869Z,3.19
2019-02-26T10:41:46.918Z,3.19
2019-02-26T10:42:43.728Z,3.03
2019-02-26T10:43:44.091Z,3.01
2019-02-26T10:44:44.069Z,2.79
2019-02-26T10:45:54.983Z,3.05
2019-02-26T10:46:44.695Z,3.11
2019-02-26T10:47:44.337Z,3.02
2019-02-26T10:48:52.977Z,2.93
2019-02-26T10:49:56.494Z,3.01
2019-02-26T10:50:52.152Z,3.05
2019-02-26T10:51:44.101Z,3.21
2019-02-26T10:52:43.753Z,3.17
2019-02-26T10:53:44.166Z,3.14
2019-02-26T10:54:46.799Z,3.11
2019-02-26T10:55:43.837Z,3.08
2019-02-26T10:56:45.100Z,3.2
2019-02-26T10:57:44.098Z,3.24
2019-02-26T10:58:45.548Z,3.52
2019-02-26T10:59:45.630Z,3.55
2019-02-26T11:00:44.343Z,3.49
2019-02-26T11:01:44.060Z,3.47
2019-02-26T11:02:54.418Z,3.51
2019-02-26T11:03:55.229Z,3.58
2019-02-26T11:04:55.618Z,3.41
2019-02-26T11:05:52.518Z,3.35
2019-02-26T11:06:47.171Z,3.39
2019-02-26T11:07:43.818Z,3.37
2019-02-26T11:08:44.054Z,3.61
2019-02-26T11:09:56.116Z,3.65
2019-02-26T11:10:52.669Z,3.45
2019-02-26T11:11:43.774Z,3.68
2019-02-26T11:12:56.397Z,3.54
2019-02-26T11:13:53.946Z,3.53
2019-02-26T11:14:44.489Z,3.54
2019-02-26T11:15:44.041Z,3.5
2019-02-26T11:16:43.793Z,3.64
2019-02-26T11:17:55.797Z,3.5
2019-02-26T11:18:47.887Z,3.59
2019-02-26T11:19:43.854Z,3.65
2019-02-26T11:20:56.670Z,3.77
2019-02-26T11:21:43.648Z,3.76
2019-02-26T11:22:52.142Z,3.68
2019-02-26T11:23:46.598Z,3.63
2019-02-26T11:24:44.092Z,3.75
2019-02-26T11:25:43.704Z,3.67
2019-02-26T11:26:44.532Z,3.57
2019-02-26T11:27:48.659Z,3.76
2019-02-26T11:28:48.237Z,3.89
2019-02-26T11:29:43.865Z,3.86
2019-02-26T11:30:54.967Z,4.11
2019-02-26T11:31:49.876Z,4.05
2019-02-26T11:32:45.372Z,4.06
2019-02-26T11:33:44.024Z,4.11
2019-02-26T11:34:43.945Z,4.11
2019-02-26T11:35:51.703Z,4.15
2019-02-26T11:36:43.970Z,4.15
2019-02-26T11:37:57.378Z,4.19
2019-02-26T11:38:47.277Z,4.08
2019-02-26T11:39:43.680Z,3.9
2019-02-26T11:40:43.649Z,4.06
2019-02-26T11:41:43.724Z,4.2
2019-02-26T11:42:51.412Z,4.17
2019-02-26T11:43:44.083Z,4.31
2019-02-26T11:44:43.782Z,4.19
2019-02-26T11:45:45.498Z,4.05
2019-02-26T11:46:55.868Z,4.13
2019-02-26T11:47:44.034Z,4.15
2019-02-26T11:48:54.583Z,4.11
2019-02-26T11:49:46.942Z,4.3
2019-02-26T11:50:45.299Z,4.21
2019-02-26T11:51:43.958Z,4.22
2019-02-26T11:52:44.040Z,4.09
2019-02-26T11:53:46.429Z,4.18
2019-02-26T11:54:44.836Z,4.23
2019-02-26T11:55:45.480Z,4.03
2019-02-26T11:56:52.772Z,3.93
2019-02-26T11:57:49.967Z,3.93
2019-02-26T11:58:43.892Z,4.07
2019-02-26T11:59:43.665Z,4.17
2019-02-26T12:00:51.281Z,3.85
2019-02-26T12:01:43.670Z,3.78
2019-02-26T12:02:44.065Z,3.79
2019-02-26T12:03:44.191Z,3.92
2019-02-26T12:04:43.941Z,3.88
2019-02-26T12:05:44.589Z,3.75
2019-02-26T12:06:43.756Z,3.9
2019-02-26T12:07:43.604Z,3.93
2019-02-26T12:08:50.175Z,3.61
2019-02-26T12:09:44.670Z,3.68
2019-02-26T12:10:43.876Z,3.8
2019-02-26T12:11:43.990Z,3.9
2019-02-26T12:12:43.815Z,4
2019-02-26T12:13:53.264Z,4.22
2019-02-26T12:14:48.765Z,4.12
2019-02-26T12:15:43.791Z,4.04
2019-02-26T12:16:44.219Z,3.99
2019-02-26T12:17:43.618Z,3.88
2019-02-26T12:18:47.164Z,4.05
2019-02-26T12:19:43.779Z,4.06
2019-02-26T12:20:48.982Z,3.91
2019-02-26T12:21:43.618Z,4.05
2019-02-26T12:22:54.844Z,4
2019-02-26T12:23:46.963Z,3.92
2019-02-26T12:24:43.732Z,4.02
2019-02-26T12:25:44.040Z,4.1
2019-02-26T12:26:54.774Z,4.29
2019-02-26T12:27:48.372Z,3.96
2019-02-26T12:28:44.255Z,4.03
2019-02-26T12:29:54.677Z,4.08
2019-02-26T12:30:47.010Z,4.01
2019-02-26T12:31:45.442Z,4.1
2019-02-26T12:32:55.191Z,3.91
2019-02-26T12:33:45.422Z,3.83
2019-02-26T12:34:51.594Z,3.84
2019-02-26T12:35:44.039Z,3.86
2019-02-26T12:36:44.340Z,3.89
2019-02-26T12:37:59.325Z,3.83
2019-02-26T12:38:44.184Z,3.9
2019-02-26T12:39:57.715Z,4.06
2019-02-26T12:40:53.574Z,4.32
2019-02-26T12:41:48.307Z,4.11
2019-02-26T12:42:43.880Z,4.1
2019-02-26T12:43:46.654Z,4.03
2019-02-26T12:44:45.715Z,4.17
2019-02-26T12:45:44.288Z,4.41
2019-02-26T12:46:56.616Z,4.08
2019-02-26T12:47:55.381Z,4.22
2019-02-26T12:48:50.517Z,3.95
2019-02-26T12:49:45.352Z,3.89
2019-02-26T12:50:43.854Z,3.95
2019-02-26T12:51:43.844Z,4.1
2019-02-26T12:52:56.932Z,4.18
2019-02-26T12:53:50.261Z,4.11
2019-02-26T12:54:43.682Z,4.23
2019-02-26T12:55:43.999Z,4.04
2019-02-26T12:56:43.685Z,4.13
2019-02-26T12:57:56.971Z,4.44
2019-02-26T12:58:54.791Z,4.33
2019-02-26T12:59:44.039Z,4.31
2019-02-26T13:00:44.403Z,4.25
2019-02-26T13:01:52.109Z,4.23
2019-02-26T13:02:52.606Z,4.29
2019-02-26T13:03:55.616Z,4.33
2019-02-26T13:04:53.642Z,4.37
2019-02-26T13:05:51.912Z,4.38
2019-02-26T13:06:52.244Z,4.32
2019-02-26T13:07:44.041Z,4.15